Time;durP1;ratioP1;P1;durP2;ratioP2;P2;SDS_P1;SDS_P2;PMS_P1;PMS_P2;Temp;Humidity;BMP_temperature;BMP_pressure;BME280_temperature;BME280_humidity;BME280_pressure;Samples;Min_cycle;Max_cycle;Signal;HPM_P1;HPM_P2
2022/04/05 00:01:47;;;;;;;8.65;6.03;;;;;;;;;;5013075;28;20049;-65
2022/04/05 00:04:16;;;;;;;7.38;5.90;;;;;;;;;;5013019;28;20057;-65
2022/04/05 00:06:43;;;;;;;8.80;5.90;;;;;;;;;;5012902;28;20081;-64
2022/04/05 00:09:10;;;;;;;7.40;5.82;;;;;;;;;;5012901;28;20124;-65
2022/04/05 00:11:37;;;;;;;8.82;6.95;;;;;;;;;;5012729;28;20050;-65
2022/04/05 00:14:04;;;;;;;8.43;6.07;;;;;;;;;;5012751;28;20133;-65
2022/04/05 00:16:30;;;;;;;8.82;6.25;;;;;;;;;;5012952;28;20054;-65
2022/04/05 00:18:57;;;;;;;7.63;5.43;;;;;;;;;;5012694;28;20500;-65
2022/04/05 00:21:23;;;;;;;6.68;5.40;;;;;;;;;;5012372;28;20053;-64
2022/04/05 00:23:50;;;;;;;6.82;5.63;;;;;;;;;;5012466;28;20091;-65
2022/04/05 00:26:17;;;;;;;8.32;5.65;;;;;;;;;;5012860;28;20077;-65
2022/04/05 00:28:43;;;;;;;8.18;7.00;;;;;;;;;;5012499;28;20080;-65
2022/04/05 00:31:10;;;;;;;7.72;5.70;;;;;;;;;;5012522;28;20104;-65
2022/04/05 00:33:37;;;;;;;9.27;6.80;;;;;;;;;;5012566;28;20056;-65
2022/04/05 00:36:04;;;;;;;6.78;5.90;;;;;;;;;;5012382;28;20420;-65
2022/04/05 00:38:30;;;;;;;7.38;6.20;;;;;;;;;;5012680;28;20050;-65
2022/04/05 00:40:57;;;;;;;7.88;6.18;;;;;;;;;;5012222;28;20566;-65
2022/04/05 00:43:24;;;;;;;7.20;5.38;;;;;;;;;;5012119;28;20053;-65
2022/04/05 00:45:50;;;;;;;9.35;6.28;;;;;;;;;;5012230;28;20056;-66
2022/04/05 00:48:42;;;;;;;6.03;5.30;;;;;;;;;;5012258;28;20046;-65
2022/04/05 00:51:09;;;;;;;7.43;6.10;;;;;;;;;;5010911;28;20103;-65
2022/04/05 00:53:35;;;;;;;6.88;6.15;;;;;;;;;;5010887;28;20497;-65
2022/04/05 00:56:02;;;;;;;7.47;5.65;;;;;;;;;;5010909;28;20053;-67
2022/04/05 00:58:29;;;;;;;8.15;5.80;;;;;;;;;;5011958;28;20053;-65
2022/04/05 01:00:57;;;;;;;8.00;5.20;;;;;;;;;;5010624;28;20054;-65
2022/04/05 01:03:24;;;;;;;7.82;5.80;;;;;;;;;;5010778;28;20066;-65
2022/04/05 01:05:51;;;;;;;8.10;6.25;;;;;;;;;;5012181;28;20050;-65
2022/04/05 01:08:18;;;;;;;8.07;5.72;;;;;;;;;;4994580;28;20420;-65
2022/04/05 01:10:45;;;;;;;8.60;5.93;;;;;;;;;;4994381;28;20108;-65
2022/04/05 01:13:12;;;;;;;8.77;5.72;;;;;;;;;;5011713;28;20495;-65
2022/04/05 01:15:45;;;;;;;8.25;5.60;;;;;;;;;;5011782;28;20415;-65
2022/04/05 01:18:13;;;;;;;7.97;5.65;;;;;;;;;;5011406;28;20046;-65
2022/04/05 01:20:40;;;;;;;10.52;6.28;;;;;;;;;;5011840;28;20505;-64
2022/04/05 01:23:07;;;;;;;9.45;5.57;;;;;;;;;;5011737;28;20058;-65
2022/04/05 01:25:33;;;;;;;7.95;5.88;;;;;;;;;;5011915;28;20050;-65
2022/04/05 01:28:00;;;;;;;9.13;6.07;;;;;;;;;;5011720;28;20049;-64
2022/04/05 01:30:26;;;;;;;5.90;5.30;;;;;;;;;;5011695;28;20097;-64
2022/04/05 01:32:57;;;;;;;9.68;6.18;;;;;;;;;;5011712;28;20054;-64
2022/04/05 01:35:23;;;;;;;11.18;6.10;;;;;;;;;;4995285;28;20096;-64
2022/04/05 01:37:50;;;;;;;7.68;6.32;;;;;;;;;;5011720;28;20417;-65
2022/04/05 01:40:17;;;;;;;7.13;5.88;;;;;;;;;;5011430;28;20049;-65
2022/04/05 01:42:43;;;;;;;8.27;5.63;;;;;;;;;;5011851;28;20444;-65
2022/04/05 01:45:10;;;;;;;7.85;6.18;;;;;;;;;;5011840;28;20472;-65
2022/04/05 01:47:38;;;;;;;9.25;6.43;;;;;;;;;;5011708;28;20054;-64
2022/04/05 01:50:06;;;;;;;8.38;6.60;;;;;;;;;;5011734;28;20054;-65
2022/04/05 01:52:33;;;;;;;8.85;6.63;;;;;;;;;;5011485;28;20083;-65
2022/04/05 01:54:59;;;;;;;9.07;6.28;;;;;;;;;;5011602;28;20046;-65
2022/04/05 01:57:26;;;;;;;9.88;6.90;;;;;;;;;;5011133;28;20046;-65
2022/04/05 01:59:52;;;;;;;9.95;6.47;;;;;;;;;;5011727;28;20053;-65
2022/04/05 02:02:19;;;;;;;9.27;6.70;;;;;;;;;;5011611;28;20058;-65
2022/04/05 02:04:45;;;;;;;11.00;6.78;;;;;;;;;;5011408;28;20041;-65
2022/04/05 02:07:14;;;;;;;9.75;6.80;;;;;;;;;;5011438;28;20125;-64
2022/04/05 02:09:41;;;;;;;7.82;6.13;;;;;;;;;;5011401;28;20054;-64
2022/04/05 02:12:09;;;;;;;9.48;6.65;;;;;;;;;;5011178;28;20108;-65
2022/04/05 02:14:37;;;;;;;10.48;6.07;;;;;;;;;;5011572;28;20046;-65
2022/04/05 02:17:05;;;;;;;8.48;6.45;;;;;;;;;;5011184;28;20463;-65
2022/04/05 02:19:32;;;;;;;8.85;6.93;;;;;;;;;;5011460;28;20054;-65
2022/04/05 02:21:59;;;;;;;8.70;6.22;;;;;;;;;;5011225;28;20056;-65
2022/04/05 02:24:25;;;;;;;8.02;7.03;;;;;;;;;;5011445;28;20096;-65
2022/04/05 02:26:52;;;;;;;10.68;6.50;;;;;;;;;;5011357;28;20054;-65
2022/04/05 02:29:19;;;;;;;8.50;6.88;;;;;;;;;;5012915;28;20060;-65
2022/04/05 02:31:45;;;;;;;8.27;6.93;;;;;;;;;;5014806;28;20050;-65
2022/04/05 02:34:12;;;;;;;11.90;6.88;;;;;;;;;;5014791;28;20058;-65
2022/04/05 02:36:39;;;;;;;8.32;7.15;;;;;;;;;;5014834;28;20053;-65
2022/04/05 02:39:06;;;;;;;10.50;7.90;;;;;;;;;;5014335;28;20049;-65
2022/04/05 02:41:33;;;;;;;10.32;7.53;;;;;;;;;;5014577;28;20054;-64
2022/04/05 02:43:59;;;;;;;9.82;6.65;;;;;;;;;;5014550;28;20535;-64
2022/04/05 02:46:26;;;;;;;10.05;6.90;;;;;;;;;;5014414;28;20050;-64
2022/04/05 02:48:54;;;;;;;12.95;7.15;;;;;;;;;;5014361;28;20092;-65
2022/04/05 02:51:22;;;;;;;13.07;7.70;;;;;;;;;;5014209;28;20140;-65
2022/04/05 02:53:48;;;;;;;8.65;7.03;;;;;;;;;;5014491;28;20467;-64
2022/04/05 02:56:15;;;;;;;10.45;7.18;;;;;;;;;;5014216;28;20041;-65
2022/04/05 02:58:43;;;;;;;8.93;7.00;;;;;;;;;;5014501;28;20050;-64
2022/04/05 03:01:10;;;;;;;8.43;6.88;;;;;;;;;;5013899;28;20046;-64
2022/04/05 03:03:37;;;;;;;11.52;7.82;;;;;;;;;;5014220;28;20058;-64
2022/04/05 03:06:03;;;;;;;9.45;6.97;;;;;;;;;;5013943;28;20072;-64
2022/04/05 03:08:30;;;;;;;9.82;7.45;;;;;;;;;;5014264;28;20705;-64
2022/04/05 03:10:57;;;;;;;8.82;7.40;;;;;;;;;;5013745;28;20053;-64
2022/04/05 03:13:23;;;;;;;10.40;7.38;;;;;;;;;;5013572;28;20053;-64
2022/04/05 03:15:50;;;;;;;10.30;7.03;;;;;;;;;;5013827;28;20041;-64
2022/04/05 03:18:17;;;;;;;7.72;6.50;;;;;;;;;;5013873;28;20456;-64
2022/04/05 03:20:44;;;;;;;9.43;7.43;;;;;;;;;;5013701;28;20057;-65
2022/04/05 03:23:10;;;;;;;8.30;7.40;;;;;;;;;;5013565;28;20579;-64
2022/04/05 03:25:37;;;;;;;12.60;7.68;;;;;;;;;;5013678;28;20046;-64
2022/04/05 03:28:04;;;;;;;8.65;7.20;;;;;;;;;;5013617;28;20567;-64
2022/04/05 03:30:31;;;;;;;10.90;7.88;;;;;;;;;;5013709;28;20054;-64
2022/04/05 03:32:58;;;;;;;10.38;7.72;;;;;;;;;;5013312;28;20141;-64
2022/04/05 03:35:25;;;;;;;10.27;8.55;;;;;;;;;;5013496;28;20045;-64
2022/04/05 03:37:52;;;;;;;10.45;7.35;;;;;;;;;;5013535;28;20100;-64
2022/04/05 03:40:18;;;;;;;14.55;8.20;;;;;;;;;;5013296;28;20058;-64
2022/04/05 03:42:45;;;;;;;13.65;8.45;;;;;;;;;;5013255;28;20464;-64
2022/04/05 03:45:12;;;;;;;12.35;7.72;;;;;;;;;;5013308;28;20096;-64
2022/04/05 03:47:38;;;;;;;13.93;8.13;;;;;;;;;;5013004;28;20045;-64
2022/04/05 03:50:05;;;;;;;12.35;8.40;;;;;;;;;;5013418;28;20475;-63
2022/04/05 03:52:32;;;;;;;10.85;9.43;;;;;;;;;;5013119;28;20468;-64
2022/04/05 03:54:59;;;;;;;17.15;8.93;;;;;;;;;;5013215;28;20046;-64
2022/04/05 03:57:25;;;;;;;16.10;9.35;;;;;;;;;;5012915;28;20104;-64
2022/04/05 03:59:52;;;;;;;12.57;9.00;;;;;;;;;;5013042;28;20057;-64
2022/04/05 04:02:18;;;;;;;14.75;9.27;;;;;;;;;;5012814;28;20050;-64
2022/04/05 04:04:45;;;;;;;13.40;9.30;;;;;;;;;;5012883;28;20050;-64
2022/04/05 04:07:12;;;;;;;15.85;10.05;;;;;;;;;;5013124;28;20057;-64
2022/04/05 04:09:39;;;;;;;14.18;9.38;;;;;;;;;;5014493;28;20057;-64
2022/04/05 04:12:06;;;;;;;17.38;13.00;;;;;;;;;;5013455;28;20058;-64
2022/04/05 04:14:33;;;;;;;17.33;11.00;;;;;;;;;;5012761;28;20129;-65
2022/04/05 04:17:00;;;;;;;12.68;8.73;;;;;;;;;;5012630;28;20485;-65
2022/04/05 04:19:26;;;;;;;13.15;10.30;;;;;;;;;;5012504;28;20539;-66
2022/04/05 04:21:53;;;;;;;16.17;11.02;;;;;;;;;;5012323;28;20563;-66
2022/04/05 04:24:19;;;;;;;17.98;10.93;;;;;;;;;;5012673;28;20050;-66
2022/04/05 04:26:46;;;;;;;12.27;9.88;;;;;;;;;;5012875;28;20050;-66
2022/04/05 04:29:14;;;;;;;14.90;10.98;;;;;;;;;;5012408;28;20191;-64
2022/04/05 04:31:41;;;;;;;13.30;10.02;;;;;;;;;;5012075;28;20046;-64
2022/04/05 04:34:08;;;;;;;13.40;10.55;;;;;;;;;;5012499;28;20563;-64
2022/04/05 04:36:34;;;;;;;18.33;12.10;;;;;;;;;;5012662;28;20444;-65
2022/04/05 04:39:01;;;;;;;14.23;9.80;;;;;;;;;;5012271;28;20096;-64
2022/04/05 04:41:27;;;;;;;11.95;9.40;;;;;;;;;;5011997;28;20050;-64
2022/04/05 04:43:54;;;;;;;13.30;10.00;;;;;;;;;;5010629;28;20053;-64
2022/04/05 04:46:21;;;;;;;12.95;9.70;;;;;;;;;;5012171;28;20100;-64
2022/04/05 04:48:47;;;;;;;14.65;9.93;;;;;;;;;;5012080;28;20049;-64
2022/04/05 04:51:14;;;;;;;14.02;9.27;;;;;;;;;;5011619;28;20057;-64
2022/04/05 04:53:41;;;;;;;11.07;9.13;;;;;;;;;;5012344;28;20049;-64
2022/04/05 04:56:08;;;;;;;14.05;9.98;;;;;;;;;;5012663;28;20050;-64
2022/04/05 04:58:37;;;;;;;12.25;9.88;;;;;;;;;;5011930;28;20054;-64
2022/04/05 05:01:04;;;;;;;13.93;9.73;;;;;;;;;;5011964;28;20041;-64
2022/04/05 05:03:31;;;;;;;12.02;9.52;;;;;;;;;;5012061;28;20049;-64
2022/04/05 05:05:58;;;;;;;12.88;9.40;;;;;;;;;;5012171;28;20456;-64
2022/04/05 05:08:25;;;;;;;14.73;9.73;;;;;;;;;;5012169;28;20129;-65
2022/04/05 05:10:52;;;;;;;15.20;9.52;;;;;;;;;;5011948;28;20085;-64
2022/04/05 05:13:20;;;;;;;15.60;10.30;;;;;;;;;;5011980;28;20132;-65
2022/04/05 05:15:48;;;;;;;23.80;13.35;;;;;;;;;;5010855;28;20050;-64
2022/04/05 05:18:18;;;;;;;19.75;13.70;;;;;;;;;;5012139;28;20046;-64
2022/04/05 05:20:44;;;;;;;18.90;13.50;;;;;;;;;;5011684;28;20058;-65
2022/04/05 05:23:11;;;;;;;17.15;11.60;;;;;;;;;;5011894;28;20053;-65
2022/04/05 05:25:38;;;;;;;14.27;10.32;;;;;;;;;;5011730;28;20056;-63
2022/04/05 05:28:05;;;;;;;13.25;10.93;;;;;;;;;;5011810;28;20049;-63
2022/04/05 05:30:32;;;;;;;15.15;10.65;;;;;;;;;;5011930;28;20104;-63
2022/04/05 05:32:59;;;;;;;18.48;10.23;;;;;;;;;;5011606;28;20050;-63
2022/04/05 05:35:26;;;;;;;18.50;10.73;;;;;;;;;;5011898;28;20516;-63
2022/04/05 05:37:52;;;;;;;16.58;10.65;;;;;;;;;;5011820;28;20058;-63
2022/04/05 05:40:19;;;;;;;18.33;10.52;;;;;;;;;;5011623;28;20054;-64
2022/04/05 05:42:53;;;;;;;17.73;10.73;;;;;;;;;;5011453;28;20527;-64
2022/04/05 05:45:20;;;;;;;14.63;11.30;;;;;;;;;;5011705;28;20464;-64
2022/04/05 05:47:47;;;;;;;14.90;11.20;;;;;;;;;;5011776;28;20050;-64
2022/04/05 05:50:13;;;;;;;15.15;10.93;;;;;;;;;;5011636;28;20097;-64
2022/04/05 05:52:41;;;;;;;17.92;10.25;;;;;;;;;;5011549;28;20229;-64
2022/04/05 05:55:09;;;;;;;16.00;11.38;;;;;;;;;;5011572;28;20053;-64
2022/04/05 05:57:36;;;;;;;16.15;11.55;;;;;;;;;;5011383;28;20583;-64
2022/04/05 06:00:08;;;;;;;15.73;11.38;;;;;;;;;;5011634;28;20072;-64
2022/04/05 06:02:38;;;;;;;18.25;11.98;;;;;;;;;;5012487;28;20053;-63
2022/04/05 06:05:05;;;;;;;17.55;12.18;;;;;;;;;;5015219;28;20054;-64
2022/04/05 06:07:38;;;;;;;17.90;12.10;;;;;;;;;;5015236;28;20132;-64
2022/04/05 06:10:06;;;;;;;15.90;10.88;;;;;;;;;;5015471;28;20112;-64
2022/04/05 06:12:32;;;;;;;18.55;11.57;;;;;;;;;;5014901;28;20053;-64
2022/04/05 06:14:59;;;;;;;17.15;11.05;;;;;;;;;;5015261;28;20053;-64
2022/04/05 06:17:26;;;;;;;17.15;12.43;;;;;;;;;;5014871;28;20111;-63
2022/04/05 06:19:52;;;;;;;16.77;11.88;;;;;;;;;;5015046;28;20061;-65
2022/04/05 06:22:19;;;;;;;16.13;11.05;;;;;;;;;;5014972;28;20045;-65
2022/04/05 06:24:46;;;;;;;18.10;12.15;;;;;;;;;;5015076;28;20065;-65
2022/04/05 06:27:13;;;;;;;15.38;11.13;;;;;;;;;;5014330;28;20463;-64
2022/04/05 06:29:40;;;;;;;17.25;12.27;;;;;;;;;;5013660;28;20053;-64
2022/04/05 06:32:07;;;;;;;13.70;9.43;;;;;;;;;;5011903;28;20061;-64
2022/04/05 06:34:33;;;;;;;12.35;9.77;;;;;;;;;;5012565;28;20054;-64
2022/04/05 06:37:00;;;;;;;14.10;10.52;;;;;;;;;;5012723;28;20124;-64
2022/04/05 06:39:26;;;;;;;15.82;10.70;;;;;;;;;;5012818;28;20058;-64
2022/04/05 06:41:53;;;;;;;11.85;8.73;;;;;;;;;;5012431;28;20108;-64
2022/04/05 06:44:20;;;;;;;12.55;9.20;;;;;;;;;;5012598;28;20503;-64
2022/04/05 06:46:46;;;;;;;14.70;10.52;;;;;;;;;;5012292;28;20108;-64
2022/04/05 06:49:13;;;;;;;15.40;10.07;;;;;;;;;;5012715;28;20098;-64
2022/04/05 06:51:39;;;;;;;11.70;9.32;;;;;;;;;;5012686;28;20053;-64
2022/04/05 06:54:06;;;;;;;14.02;9.82;;;;;;;;;;5012834;28;20060;-64
2022/04/05 06:56:33;;;;;;;12.05;9.80;;;;;;;;;;5012367;28;20096;-64
2022/04/05 06:58:59;;;;;;;14.32;9.30;;;;;;;;;;5011990;28;20054;-64
2022/04/05 07:01:26;;;;;;;11.98;9.38;;;;;;;;;;5012182;28;20057;-64
2022/04/05 07:03:53;;;;;;;12.93;9.13;;;;;;;;;;5012624;28;20057;-64
2022/04/05 07:06:19;;;;;;;12.23;9.25;;;;;;;;;;5012220;28;20489;-64
2022/04/05 07:08:47;;;;;;;14.20;9.98;;;;;;;;;;5012044;28;20057;-64
2022/04/05 07:11:14;;;;;;;12.93;9.38;;;;;;;;;;5011664;28;20394;-63
2022/04/05 07:13:41;;;;;;;13.48;9.25;;;;;;;;;;5011971;28;20054;-64
2022/04/05 07:16:07;;;;;;;12.07;8.63;;;;;;;;;;5011338;28;20049;-64
2022/04/05 07:18:34;;;;;;;14.10;8.98;;;;;;;;;;5011879;28;20053;-64
2022/04/05 07:21:02;;;;;;;16.35;8.88;;;;;;;;;;5012025;28;20053;-64
2022/04/05 07:23:29;;;;;;;11.40;9.52;;;;;;;;;;5010657;28;20515;-63
2022/04/05 07:25:55;;;;;;;13.90;9.07;;;;;;;;;;5011704;28;20104;-63
2022/04/05 07:28:22;;;;;;;10.68;8.70;;;;;;;;;;4991770;28;20101;-64
2022/04/05 07:30:49;;;;;;;10.93;9.05;;;;;;;;;;4991866;28;20054;-63
2022/04/05 07:33:15;;;;;;;13.45;9.48;;;;;;;;;;4992181;28;20054;-63
2022/04/05 07:35:42;;;;;;;14.60;9.60;;;;;;;;;;4992080;28;20177;-64
2022/04/05 07:38:09;;;;;;;11.15;8.43;;;;;;;;;;5007852;28;20053;-64
2022/04/05 07:40:52;;;;;;;11.38;8.48;;;;;;;;;;5011242;28;20050;-64
2022/04/05 07:43:20;;;;;;;14.90;8.80;;;;;;;;;;5011333;28;20054;-64
2022/04/05 07:45:49;;;;;;;15.15;7.72;;;;;;;;;;5011550;28;20050;-65
2022/04/05 07:48:20;;;;;;;11.82;8.45;;;;;;;;;;5011508;28;20060;-64
2022/04/05 07:50:47;;;;;;;10.18;7.97;;;;;;;;;;5010705;28;20112;-64
2022/04/05 07:53:14;;;;;;;10.55;7.93;;;;;;;;;;5011133;28;20057;-64
2022/04/05 07:55:41;;;;;;;11.55;8.52;;;;;;;;;;5010990;28;20100;-64
2022/04/05 07:58:08;;;;;;;11.38;7.60;;;;;;;;;;5010957;28;20058;-63
2022/04/05 08:00:35;;;;;;;12.23;7.60;;;;;;;;;;5011160;28;20057;-64
2022/04/05 08:03:01;;;;;;;12.75;9.15;;;;;;;;;;5010421;28;20050;-64
2022/04/05 08:05:28;;;;;;;11.85;7.60;;;;;;;;;;4997719;28;20094;-63
2022/04/05 08:07:55;;;;;;;9.25;7.00;;;;;;;;;;4999789;28;20054;-68
2022/04/05 08:10:22;;;;;;;12.38;8.05;;;;;;;;;;4996031;28;20063;-62
2022/04/05 08:12:49;;;;;;;11.07;7.28;;;;;;;;;;5001423;28;20054;-63
2022/04/05 08:15:21;;;;;;;11.50;6.32;;;;;;;;;;4997997;28;20050;-68
2022/04/05 08:17:48;;;;;;;9.98;7.68;;;;;;;;;;5001789;28;20489;-67
2022/04/05 08:20:15;;;;;;;14.07;7.88;;;;;;;;;;5000461;28;20046;-65
2022/04/05 08:22:42;;;;;;;10.75;8.52;;;;;;;;;;4996298;28;20054;-66
2022/04/05 08:25:10;;;;;;;10.60;7.93;;;;;;;;;;5001164;28;20050;-68
2022/04/05 08:27:39;;;;;;;8.48;7.07;;;;;;;;;;5003859;28;20092;-68
2022/04/05 08:30:08;;;;;;;9.55;7.05;;;;;;;;;;4999117;28;20329;-67
2022/04/05 08:32:37;;;;;;;12.68;8.20;;;;;;;;;;4999433;28;20054;-70
2022/04/05 08:35:05;;;;;;;9.07;7.45;;;;;;;;;;5003879;28;20049;-69
2022/04/05 08:37:31;;;;;;;11.80;8.63;;;;;;;;;;5001229;28;20050;-70
2022/04/05 08:39:58;;;;;;;11.95;8.27;;;;;;;;;;4997665;28;20047;-69
2022/04/05 08:42:25;;;;;;;14.32;8.45;;;;;;;;;;4992211;28;20425;-72
2022/04/05 08:44:51;;;;;;;12.20;7.75;;;;;;;;;;5000723;28;20053;-62
2022/04/05 08:47:23;;;;;;;14.93;8.45;;;;;;;;;;4995628;28;20084;-65
2022/04/05 08:49:50;;;;;;;10.25;7.97;;;;;;;;;;5002526;28;20062;-64
2022/04/05 08:52:17;;;;;;;11.32;8.73;;;;;;;;;;4996877;28;20045;-65
2022/04/05 08:54:43;;;;;;;11.15;8.50;;;;;;;;;;4997903;28;20050;-69
2022/04/05 08:57:10;;;;;;;9.35;7.53;;;;;;;;;;4998801;28;20050;-71
2022/04/05 08:59:36;;;;;;;10.70;8.02;;;;;;;;;;5020463;23;20045;-68
2022/04/05 09:02:06;;;;;;;13.00;8.30;;;;;;;;;;5001133;28;20050;-71
2022/04/05 09:04:33;;;;;;;11.18;7.22;;;;;;;;;;4997680;28;20128;-72
2022/04/05 09:07:23;;;;;;;10.38;7.80;;;;;;;;;;4997218;28;20047;-68
2022/04/05 09:10:06;;;;;;;12.70;8.00;;;;;;;;;;4998036;28;20460;-69
2022/04/05 09:12:44;;;;;;;11.20;7.85;;;;;;;;;;5001586;28;20622;-70
2022/04/05 09:15:21;;;;;;;9.48;6.93;;;;;;;;;;4999252;28;20061;-72
2022/04/05 09:17:48;;;;;;;11.38;7.90;;;;;;;;;;4994677;28;20573;-70
2022/04/05 09:20:17;;;;;;;10.27;7.53;;;;;;;;;;4999245;28;20049;-68
2022/04/05 09:22:44;;;;;;;10.20;6.85;;;;;;;;;;4997406;28;20515;-71
2022/04/05 09:25:15;;;;;;;10.48;7.07;;;;;;;;;;5000673;28;20050;-71
2022/04/05 09:27:43;;;;;;;8.77;7.28;;;;;;;;;;4993125;28;20133;-71
2022/04/05 09:30:14;;;;;;;13.88;9.73;;;;;;;;;;4982765;28;20042;-73
2022/04/05 09:32:43;;;;;;;13.68;9.68;;;;;;;;;;4982182;28;20043;-75
2022/04/05 09:35:11;;;;;;;10.82;8.55;;;;;;;;;;4984800;28;20058;-73
2022/04/05 09:37:41;;;;;;;10.30;7.30;;;;;;;;;;4996951;28;20054;-71
2022/04/05 09:40:22;;;;;;;9.88;7.90;;;;;;;;;;4983092;28;20092;-66
2022/04/05 09:43:12;;;;;;;11.90;7.68;;;;;;;;;;4984634;28;20055;-66
2022/04/05 09:45:49;;;;;;;12.20;9.52;;;;;;;;;;4984704;28;20521;-70
2022/04/05 09:48:24;;;;;;;14.98;10.95;;;;;;;;;;4982929;28;20396;-71
2022/04/05 09:51:12;;;;;;;11.90;9.43;;;;;;;;;;4981952;28;20527;-70
2022/04/05 09:53:39;;;;;;;10.48;7.68;;;;;;;;;;4996270;28;20097;-67
2022/04/05 09:56:09;;;;;;;9.27;6.78;;;;;;;;;;4983192;28;20104;-66
2022/04/05 09:58:37;;;;;;;7.22;6.47;;;;;;;;;;4982164;28;20518;-64
2022/04/05 10:01:07;;;;;;;11.27;6.82;;;;;;;;;;4983286;28;20462;-73
2022/04/05 10:03:35;;;;;;;8.73;6.30;;;;;;;;;;4983574;28;20054;-73
2022/04/05 10:06:03;;;;;;;8.27;6.82;;;;;;;;;;4963770;28;20073;-76
2022/04/05 10:08:31;;;;;;;7.80;6.22;;;;;;;;;;4985674;28;20055;-67
2022/04/05 10:10:58;;;;;;;8.23;6.35;;;;;;;;;;4984493;28;20378;-72
2022/04/05 10:13:26;;;;;;;8.07;6.30;;;;;;;;;;4983384;28;20054;-73
2022/04/05 10:15:53;;;;;;;8.30;5.80;;;;;;;;;;4980973;28;20564;-65
2022/04/05 10:18:20;;;;;;;7.20;5.82;;;;;;;;;;4982875;28;20125;-69
2022/04/05 10:20:49;;;;;;;7.15;5.72;;;;;;;;;;4983129;28;20055;-69
2022/04/05 10:23:21;;;;;;;6.45;5.22;;;;;;;;;;4981114;28;20053;-71
2022/04/05 10:25:53;;;;;;;7.13;5.67;;;;;;;;;;4982922;28;20081;-73
2022/04/05 10:28:23;;;;;;;8.95;5.70;;;;;;;;;;4981293;28;20501;-71
2022/04/05 10:30:55;;;;;;;7.97;5.90;;;;;;;;;;4981435;28;20050;-69
2022/04/05 10:33:54;;;;;;;7.63;5.20;;;;;;;;;;4964684;28;20051;-68
2022/04/05 10:36:22;;;;;;;6.90;5.55;;;;;;;;;;4971655;28;20102;-67
2022/04/05 10:39:15;;;;;;;10.02;6.95;;;;;;;;;;4980725;28;20073;-71
2022/04/05 10:42:21;;;;;;;10.27;6.55;;;;;;;;;;4987110;28;20050;-71
2022/04/05 10:45:08;;;;;;;6.93;6.20;;;;;;;;;;4963870;28;20441;-70
2022/04/05 10:48:13;;;;;;;7.72;6.38;;;;;;;;;;4985032;28;20086;-68
2022/04/05 10:51:00;;;;;;;9.00;6.28;;;;;;;;;;4979666;28;20497;-68
2022/04/05 10:53:34;;;;;;;7.88;6.40;;;;;;;;;;4982010;28;20057;-69
2022/04/05 10:56:06;;;;;;;8.63;6.70;;;;;;;;;;4982021;28;20501;-71
2022/04/05 10:58:35;;;;;;;8.55;6.43;;;;;;;;;;4993669;28;20073;-73
2022/04/05 11:01:19;;;;;;;8.80;6.60;;;;;;;;;;4999171;28;20046;-69
2022/04/05 11:04:04;;;;;;;;;;;;;;;;;;5000562;28;20054;-70
2022/04/05 11:07:07;;;;;;;8.52;6.10;;;;;;;;;;4992928;28;19929;-68
2022/04/05 11:09:54;;;;;;;8.95;6.80;;;;;;;;;;4990292;28;20057;-69
2022/04/05 11:12:33;;;;;;;14.10;8.18;;;;;;;;;;4991264;28;20081;-70
2022/04/05 11:15:04;;;;;;;9.98;7.57;;;;;;;;;;4989342;28;20053;-69
2022/04/05 11:17:33;;;;;;;7.70;6.70;;;;;;;;;;4991745;28;20051;-70
2022/04/05 11:20:01;;;;;;;8.57;6.47;;;;;;;;;;4985904;28;20418;-69
2022/04/05 11:22:35;;;;;;;12.00;6.70;;;;;;;;;;4984077;28;20085;-69
2022/04/05 11:25:05;;;;;;;7.68;6.82;;;;;;;;;;4984859;28;20081;-68
2022/04/05 11:27:35;;;;;;;8.48;7.03;;;;;;;;;;4983241;28;20126;-67
2022/04/05 11:30:20;;;;;;;8.23;5.60;;;;;;;;;;4986107;28;20051;-67
2022/04/05 11:33:06;;;;;;;6.93;6.22;;;;;;;;;;4982960;28;20054;-66
2022/04/05 11:35:50;;;;;;;8.43;6.83;;;;;;;;;;4985907;28;20133;-67
2022/04/05 11:38:17;;;;;;;8.10;6.97;;;;;;;;;;4983931;28;20799;-67
2022/04/05 11:40:49;;;;;;;10.18;7.43;;;;;;;;;;4982426;28;20051;-67
2022/04/05 11:43:20;;;;;;;8.75;6.47;;;;;;;;;;4985684;28;20051;-67
2022/04/05 11:45:47;;;;;;;12.73;6.82;;;;;;;;;;4980969;28;20477;-66
2022/04/05 11:48:18;;;;;;;8.10;6.45;;;;;;;;;;4981697;28;20046;-67
2022/04/05 11:50:44;;;;;;;11.18;6.53;;;;;;;;;;4980100;28;20399;-67
2022/04/05 11:53:25;;;;;;;7.95;5.22;;;;;;;;;;4980750;28;20097;-67
2022/04/05 11:56:17;;;;;;;7.00;5.63;;;;;;;;;;4983569;28;20056;-66
2022/04/05 11:58:46;;;;;;;7.45;6.18;;;;;;;;;;4979076;28;20053;-66
2022/04/05 12:01:15;;;;;;;7.45;4.97;;;;;;;;;;4984461;28;20046;-67
2022/04/05 12:03:44;;;;;;;5.10;4.57;;;;;;;;;;4981009;28;20069;-66
2022/04/05 12:06:12;;;;;;;7.63;5.30;;;;;;;;;;4979708;28;20051;-66
2022/04/05 12:08:39;;;;;;;7.40;4.97;;;;;;;;;;4982664;28;20453;-66
2022/04/05 12:11:06;;;;;;;7.05;5.28;;;;;;;;;;4962574;28;20105;-66
2022/04/05 12:13:34;;;;;;;7.03;5.15;;;;;;;;;;4980044;28;20599;-66
2022/04/05 12:16:03;;;;;;;5.43;4.20;;;;;;;;;;4980733;28;20046;-66
2022/04/05 12:18:30;;;;;;;5.93;5.15;;;;;;;;;;4979135;28;20047;-66
2022/04/05 12:21:07;;;;;;;6.95;4.78;;;;;;;;;;4978466;28;20077;-66
2022/04/05 12:23:38;;;;;;;5.50;4.57;;;;;;;;;;4979373;28;20059;-66
2022/04/05 12:26:23;;;;;;;5.72;4.10;;;;;;;;;;4982900;28;20378;-66
2022/04/05 12:28:54;;;;;;;5.82;4.38;;;;;;;;;;4980424;28;20042;-67
2022/04/05 12:31:22;;;;;;;6.00;4.65;;;;;;;;;;4981395;28;20097;-66
2022/04/05 12:34:08;;;;;;;4.13;3.72;;;;;;;;;;4979916;28;20073;-66
2022/04/05 12:36:36;;;;;;;5.55;4.30;;;;;;;;;;4980888;28;20062;-66
2022/04/05 12:39:07;;;;;;;5.13;4.43;;;;;;;;;;4978612;28;20043;-67
2022/04/05 12:41:39;;;;;;;4.53;3.63;;;;;;;;;;4983038;28;20054;-66
2022/04/05 12:44:08;;;;;;;6.35;3.90;;;;;;;;;;4980597;28;20054;-66
2022/04/05 12:46:41;;;;;;;5.15;3.88;;;;;;;;;;4981886;28;20109;-68
2022/04/05 12:49:34;;;;;;;3.90;3.45;;;;;;;;;;4981754;28;20565;-68
2022/04/05 12:52:17;;;;;;;6.30;3.88;;;;;;;;;;4983712;28;20042;-67
2022/04/05 12:54:46;;;;;;;6.10;4.28;;;;;;;;;;4982526;28;20093;-68
2022/04/05 12:57:13;;;;;;;6.70;4.53;;;;;;;;;;4980543;28;20513;-67
2022/04/05 12:59:39;;;;;;;5.63;4.30;;;;;;;;;;4977636;28;20054;-67
2022/04/05 13:02:06;;;;;;;7.28;4.07;;;;;;;;;;4983111;28;20054;-68
2022/04/05 13:04:35;;;;;;;6.05;3.85;;;;;;;;;;4983408;28;20498;-67
2022/04/05 13:07:03;;;;;;;8.85;4.35;;;;;;;;;;4984002;28;20069;-67
2022/04/05 13:09:30;;;;;;;6.13;4.80;;;;;;;;;;4983955;28;20054;-67
2022/04/05 13:12:16;;;;;;;7.00;5.10;;;;;;;;;;4980206;28;20058;-67
2022/04/05 13:14:44;;;;;;;8.55;5.25;;;;;;;;;;4983273;28;20116;-67
2022/04/05 13:17:12;;;;;;;9.52;6.30;;;;;;;;;;4983504;28;20121;-67
2022/04/05 13:19:39;;;;;;;7.97;6.18;;;;;;;;;;4991165;28;20054;-68
2022/04/05 13:22:14;;;;;;;8.27;6.60;;;;;;;;;;4974550;28;20054;-67
2022/04/05 13:24:45;;;;;;;6.45;5.65;;;;;;;;;;4992364;28;20447;-67
2022/04/05 13:27:13;;;;;;;6.30;5.70;;;;;;;;;;4991646;28;20402;-67
2022/04/05 13:29:43;;;;;;;8.38;6.18;;;;;;;;;;4992192;28;20046;-67
2022/04/05 13:32:17;;;;;;;6.75;5.50;;;;;;;;;;4992424;28;20046;-67
2022/04/05 13:34:44;;;;;;;9.88;5.55;;;;;;;;;;4992343;28;20050;-68
2022/04/05 13:37:16;;;;;;;6.82;5.63;;;;;;;;;;4992140;28;20050;-67
2022/04/05 13:39:48;;;;;;;9.85;6.45;;;;;;;;;;4988964;28;20047;-67
2022/04/05 13:42:14;;;;;;;7.35;6.50;;;;;;;;;;4972710;28;20105;-67
2022/04/05 13:44:41;;;;;;;6.20;5.55;;;;;;;;;;4972459;28;20058;-66
2022/04/05 13:47:08;;;;;;;8.57;6.20;;;;;;;;;;4975583;28;20085;-65
2022/04/05 13:49:35;;;;;;;7.45;6.35;;;;;;;;;;4976800;28;20055;-65
2022/04/05 13:52:02;;;;;;;7.88;5.55;;;;;;;;;;4973032;28;20340;-64
2022/04/05 13:54:49;;;;;;;6.78;5.80;;;;;;;;;;4971642;28;20137;-64
2022/04/05 13:57:17;;;;;;;7.05;5.97;;;;;;;;;;4971386;28;20057;-67
2022/04/05 13:59:44;;;;;;;7.72;5.97;;;;;;;;;;4988373;28;20090;-67
2022/04/05 14:02:11;;;;;;;7.15;5.97;;;;;;;;;;4988367;28;20049;-67
2022/04/05 14:04:38;;;;;;;7.03;6.03;;;;;;;;;;4966392;28;20058;-68
2022/04/05 14:07:06;;;;;;;6.85;6.15;;;;;;;;;;4981803;28;20043;-67
2022/04/05 14:09:32;;;;;;;8.38;6.03;;;;;;;;;;4978651;28;20061;-76
2022/04/05 14:11:59;;;;;;;7.80;7.10;;;;;;;;;;4977284;28;20051;-73
2022/04/05 14:14:26;;;;;;;9.65;7.78;;;;;;;;;;4976504;28;20141;-70
2022/04/05 14:16:53;;;;;;;8.55;7.05;;;;;;;;;;4977054;28;20051;-69
2022/04/05 14:19:20;;;;;;;8.15;6.10;;;;;;;;;;4981919;28;20498;-71
2022/04/05 14:21:47;;;;;;;6.88;5.90;;;;;;;;;;4977823;28;20126;-71
2022/04/05 14:24:14;;;;;;;9.63;6.57;;;;;;;;;;4983764;28;20104;-70
2022/04/05 14:26:40;;;;;;;6.53;4.93;;;;;;;;;;4981439;28;20051;-69
2022/04/05 14:29:10;;;;;;;5.47;4.97;;;;;;;;;;4982931;28;20074;-70
2022/04/05 14:31:38;;;;;;;6.47;4.95;;;;;;;;;;4981215;28;20051;-70
2022/04/05 14:34:04;;;;;;;7.22;5.60;;;;;;;;;;4982487;28;20069;-71
2022/04/05 14:36:31;;;;;;;6.72;4.97;;;;;;;;;;4981353;28;20573;-71
2022/04/05 14:39:01;;;;;;;5.15;4.65;;;;;;;;;;4984417;28;20047;-72
2022/04/05 14:41:29;;;;;;;6.30;3.80;;;;;;;;;;4984982;28;20117;-73
2022/04/05 14:43:59;;;;;;;5.35;3.25;;;;;;;;;;4963707;28;20101;-73
2022/04/05 14:46:29;;;;;;;4.95;3.33;;;;;;;;;;4984930;28;20426;-69
2022/04/05 14:48:59;;;;;;;5.28;3.83;;;;;;;;;;4981206;28;20058;-71